Main page
METAR-TAF:

METAR-TAF

Airports :

Tunis–Carthage International Airport

Tunis, Tunisia

latitude: 36-50N, longitude: 010-14E, elevation: 3 m

Current weather observation

The report was made 27 minutes ago, at 01:00 UTC
Wind 16 kt from the East/Southeast
Temperature 16°C
Humidity 77%
Pressure 1019 hPa
Visibility 10 km or more
no clouds below 1500 m and no cumulonimbus

METAR: DTTA 190100Z 11016KT CAVOK 16/12 Q1019

Time: 02:27 (01:27 UTC)

Forecast

The report was made 2 hours and 27 minutes ago, at 23:00 UTC
Forecast valid from 19 at 00 UTC to 19 at 24 UTC
Wind 15 kt from the East/Southeast
Visibility 10 km or more
Scattered clouds at a height of 2600 ft
Temporary
from 19 at 10 UTC to 19 at 24 UTC
Wind 22 kt from the Southeast with gusts up to 32 kt

TAF: DTTA 182300Z 1900/1924 12015KT 9999 SCT026 TEMPO 1910/1924 13022G32KT

Weather observations and forecasts of more than 4000 airports (METAR and TAF reports).

The available stations are represented by yellow and red dots on the map.

Hover mouse over dot to see the name of the station.

Then click to see weather observations and forecasts.

To change the map : click on the green buttons with a black cross to zoom in, on the green button with a dash to zoom out, or on the green arrows for adjacent maps.


METAR-TAF: